Time;durP1;ratioP1;P1;durP2;ratioP2;P2;SDS_P1;SDS_P2;PMS_P1;PMS_P2;Temp;Humidity;BMP_temperature;BMP_pressure;BME280_temperature;BME280_humidity;BME280_pressure;Samples;Min_cycle;Max_cycle;Signal;HPM_P1;HPM_P2
2022/08/22 00:02:18;;;;;;;2.30;1.42;;;;;;;;;;5103934;28;20064;-58
2022/08/22 00:04:51;;;;;;;2.65;1.15;;;;;;;;;;5104723;28;20153;-57
2022/08/22 00:07:34;;;;;;;2.45;0.80;;;;;;;;;;5104829;28;20043;-57
2022/08/22 00:10:18;;;;;;;2.13;0.82;;;;;;;;;;5102495;28;20187;-58
2022/08/22 00:12:43;;;;;;;2.33;1.17;;;;;;;;;;5105221;28;20079;-57
2022/08/22 00:15:12;;;;;;;4.22;1.05;;;;;;;;;;5105163;28;20517;-58
2022/08/22 00:17:48;;;;;;;2.05;1.25;;;;;;;;;;5103325;28;20566;-58
2022/08/22 00:20:13;;;;;;;6.13;1.20;;;;;;;;;;5103868;28;20036;-57
2022/08/22 00:22:47;;;;;;;7.13;1.65;;;;;;;;;;5104238;28;20389;-58
2022/08/22 00:25:30;;;;;;;2.35;0.77;;;;;;;;;;5104307;28;20036;-58
2022/08/22 00:27:59;;;;;;;4.10;0.75;;;;;;;;;;5102320;28;20051;-57
2022/08/22 00:30:25;;;;;;;1.95;1.33;;;;;;;;;;5105957;28;20052;-58
2022/08/22 00:32:58;;;;;;;8.95;1.05;;;;;;;;;;5105457;28;20044;-58
2022/08/22 00:35:27;;;;;;;3.08;1.40;;;;;;;;;;5104110;28;20666;-58
2022/08/22 00:37:52;;;;;;;2.28;1.10;;;;;;;;;;5104422;28;20052;-57
2022/08/22 00:40:30;;;;;;;1.95;1.00;;;;;;;;;;5100711;28;20155;-58
2022/08/22 00:43:04;;;;;;;1.75;1.05;;;;;;;;;;5104009;28;20047;-58
2022/08/22 00:45:32;;;;;;;11.13;3.28;;;;;;;;;;5108046;28;20038;-58
2022/08/22 00:48:01;;;;;;;4.78;1.85;;;;;;;;;;5106809;28;20721;-57
2022/08/22 00:50:45;;;;;;;1.95;1.30;;;;;;;;;;5108515;28;20051;-57
2022/08/22 00:53:13;;;;;;;8.23;1.10;;;;;;;;;;5108482;28;20093;-58
2022/08/22 00:56:08;;;;;;;6.20;1.33;;;;;;;;;;5108047;28;20063;-57
2022/08/22 00:58:33;;;;;;;1.00;0.80;;;;;;;;;;5106653;28;20039;-57
2022/08/22 01:01:01;;;;;;;3.55;1.38;;;;;;;;;;5109027;28;20407;-57
2022/08/22 01:03:48;;;;;;;2.67;0.88;;;;;;;;;;5108381;28;20044;-57
2022/08/22 01:06:28;;;;;;;7.13;3.05;;;;;;;;;;5109342;28;20429;-57
2022/08/22 01:08:54;;;;;;;;;;;;;;;;;;5108131;28;20044;-56
2022/08/22 01:11:34;;;;;;;4.03;1.20;;;;;;;;;;5108683;28;19934;-55
2022/08/22 01:14:12;;;;;;;0.60;0.60;;;;;;;;;;5103642;28;20300;-57
2022/08/22 01:16:57;;;;;;;1.10;0.73;;;;;;;;;;5107954;27;20044;-57
2022/08/22 01:19:42;;;;;;;2.05;1.40;;;;;;;;;;5106980;28;20043;-57
2022/08/22 01:22:19;;;;;;;1.27;0.98;;;;;;;;;;5108307;28;20040;-57
2022/08/22 01:27:34;;;;;;;1.53;1.00;;;;;;;;;;5107114;28;20631;-57
2022/08/22 01:30:13;;;;;;;5.60;1.45;;;;;;;;;;5105928;28;20040;-56
2022/08/22 01:32:58;;;;;;;1.38;0.98;;;;;;;;;;5107509;28;20043;-56
2022/08/22 01:35:28;;;;;;;1.02;0.70;;;;;;;;;;5105222;28;20043;-57
2022/08/22 01:37:59;;;;;;;1.35;0.93;;;;;;;;;;5106514;28;20149;-57
2022/08/22 01:40:40;;;;;;;1.73;1.00;;;;;;;;;;5105987;28;20227;-56
2022/08/22 01:43:09;;;;;;;8.20;1.20;;;;;;;;;;5104182;28;20659;-57
2022/08/22 01:45:49;;;;;;;1.58;1.00;;;;;;;;;;5106798;27;20066;-57
2022/08/22 01:48:29;;;;;;;2.40;1.25;;;;;;;;;;5105250;28;20049;-57
2022/08/22 01:51:15;;;;;;;17.30;2.20;;;;;;;;;;5102975;28;20066;-57
2022/08/22 01:54:03;;;;;;;10.30;6.25;;;;;;;;;;5051494;28;20046;-56
2022/08/22 01:56:34;;;;;;;7.85;6.65;;;;;;;;;;5093263;28;20071;-57
2022/08/22 01:59:02;;;;;;;3.08;2.72;;;;;;;;;;5107735;28;20181;-58
2022/08/22 02:01:30;;;;;;;1.70;0.95;;;;;;;;;;5106934;28;20088;-57
2022/08/22 02:03:59;;;;;;;1.95;0.93;;;;;;;;;;5107860;28;20081;-58
2022/08/22 02:07:03;;;;;;;1.67;0.88;;;;;;;;;;5106007;28;20051;-57
2022/08/22 02:09:37;;;;;;;4.55;0.80;;;;;;;;;;5028482;28;20064;-57
2022/08/22 02:12:14;;;;;;;2.20;1.30;;;;;;;;;;5032445;28;20337;-57
2022/08/22 02:14:43;;;;;;;8.13;1.55;;;;;;;;;;5072785;28;20131;-57
2022/08/22 02:17:24;;;;;;;3.20;1.70;;;;;;;;;;5106597;28;20531;-57
2022/08/22 02:20:01;;;;;;;1.75;1.40;;;;;;;;;;5106897;28;20050;-57
2022/08/22 02:22:29;;;;;;;1.67;1.35;;;;;;;;;;5105519;27;20050;-58
2022/08/22 02:25:06;;;;;;;1.77;1.08;;;;;;;;;;5105254;28;20114;-58
2022/08/22 02:27:56;;;;;;;6.70;1.95;;;;;;;;;;5102884;28;20101;-58
2022/08/22 02:30:25;;;;;;;3.70;1.42;;;;;;;;;;5057981;28;20405;-56
2022/08/22 02:32:55;;;;;;;1.02;0.70;;;;;;;;;;5106379;28;20075;-56
2022/08/22 02:35:21;;;;;;;2.22;1.35;;;;;;;;;;5106787;28;20054;-55
2022/08/22 02:38:04;;;;;;;1.83;1.10;;;;;;;;;;5105981;28;20937;-57
2022/08/22 02:40:36;;;;;;;1.83;1.50;;;;;;;;;;5106936;28;20051;-58
2022/08/22 02:43:01;;;;;;;2.97;1.73;;;;;;;;;;5107044;28;20487;-58
2022/08/22 02:45:38;;;;;;;2.22;1.52;;;;;;;;;;5107066;28;20097;-58
2022/08/22 02:48:16;;;;;;;2.65;1.90;;;;;;;;;;5105828;28;20639;-58
2022/08/22 02:50:48;;;;;;;1.30;0.65;;;;;;;;;;5084668;28;20859;-56
2022/08/22 02:53:16;;;;;;;1.63;0.80;;;;;;;;;;5106201;28;20113;-57
2022/08/22 02:56:00;;;;;;;4.22;1.30;;;;;;;;;;5106694;28;20059;-58
2022/08/22 02:58:28;;;;;;;4.38;1.17;;;;;;;;;;5105408;28;20063;-57
2022/08/22 03:00:57;;;;;;;2.08;1.60;;;;;;;;;;5106140;28;20048;-59
2022/08/22 03:03:24;;;;;;;3.42;1.38;;;;;;;;;;5106473;28;20047;-58
2022/08/22 03:05:54;;;;;;;1.58;1.40;;;;;;;;;;5105528;28;20056;-58
2022/08/22 03:08:25;;;;;;;2.35;1.52;;;;;;;;;;5106387;28;20046;-58
2022/08/22 03:11:09;;;;;;;4.88;3.90;;;;;;;;;;5106048;28;20985;-56
2022/08/22 03:13:34;;;;;;;2.45;1.73;;;;;;;;;;5083716;28;20669;-58
2022/08/22 03:16:05;;;;;;;1.63;1.20;;;;;;;;;;5105773;28;20062;-57
2022/08/22 03:18:43;;;;;;;2.63;2.28;;;;;;;;;;5105927;28;20058;-57
2022/08/22 03:21:24;;;;;;;3.15;1.85;;;;;;;;;;5106119;28;20051;-56
2022/08/22 03:23:55;;;;;;;1.58;1.00;;;;;;;;;;5105093;28;20177;-57
2022/08/22 03:26:39;;;;;;;11.93;1.80;;;;;;;;;;5105540;28;20043;-58
2022/08/22 03:29:08;;;;;;;3.35;0.57;;;;;;;;;;5104470;28;20067;-57
2022/08/22 03:31:34;;;;;;;4.82;0.70;;;;;;;;;;5104356;28;20134;-57
2022/08/22 03:34:14;;;;;;;0.80;0.50;;;;;;;;;;5106679;28;20510;-57
2022/08/22 03:36:44;;;;;;;3.00;1.50;;;;;;;;;;5104013;28;21075;-57
2022/08/22 03:39:14;;;;;;;3.17;1.20;;;;;;;;;;5105013;28;20043;-57
2022/08/22 03:41:51;;;;;;;1.02;0.73;;;;;;;;;;5106398;28;20093;-57
2022/08/22 03:44:29;;;;;;;2.28;1.33;;;;;;;;;;5105412;28;20036;-57
2022/08/22 03:47:00;;;;;;;2.55;1.38;;;;;;;;;;5104971;28;20050;-58
2022/08/22 03:49:49;;;;;;;1.73;1.05;;;;;;;;;;5104151;28;20093;-57
2022/08/22 03:55:46;;;;;;;0.88;0.65;;;;;;;;;;5105228;28;20059;-57
2022/08/22 03:58:27;;;;;;;0.75;0.55;;;;;;;;;;5105239;28;20111;-57
2022/08/22 04:00:52;;;;;;;13.13;0.95;;;;;;;;;;5105602;28;20119;-57
2022/08/22 04:03:21;;;;;;;1.30;0.90;;;;;;;;;;5105124;28;20055;-57
2022/08/22 04:06:01;;;;;;;1.23;0.98;;;;;;;;;;5103993;28;20044;-57
2022/08/22 04:08:27;;;;;;;;;;;;;;;;;;5103654;28;20591;-56
2022/08/22 04:10:55;;;;;;;3.03;1.08;;;;;;;;;;5106006;28;19936;-60
2022/08/22 04:13:23;;;;;;;0.70;0.55;;;;;;;;;;5102180;28;20062;-57
2022/08/22 04:16:07;;;;;;;1.55;0.77;;;;;;;;;;5105120;28;20043;-56
2022/08/22 04:18:42;;;;;;;3.65;1.50;;;;;;;;;;5103382;28;20039;-57
2022/08/22 04:21:19;;;;;;;1.85;1.00;;;;;;;;;;5109080;28;20553;-57
2022/08/22 04:23:47;;;;;;;1.05;0.68;;;;;;;;;;5107578;28;20046;-57
2022/08/22 04:26:16;;;;;;;2.17;0.80;;;;;;;;;;5107495;28;20054;-56
2022/08/22 04:28:41;;;;;;;2.13;1.08;;;;;;;;;;5108833;28;20043;-57
2022/08/22 04:31:11;;;;;;;2.40;1.08;;;;;;;;;;5108306;28;20160;-57
2022/08/22 04:33:39;;;;;;;2.33;1.50;;;;;;;;;;5107481;28;20048;-58
2022/08/22 04:36:12;;;;;;;1.65;1.13;;;;;;;;;;5088557;28;20076;-57
2022/08/22 04:38:47;;;;;;;2.83;1.70;;;;;;;;;;5107250;28;20130;-58
2022/08/22 04:41:17;;;;;;;11.63;9.38;;;;;;;;;;5107912;28;20039;-56
2022/08/22 04:43:42;;;;;;;2.90;1.60;;;;;;;;;;5109381;28;20043;-57
2022/08/22 04:46:26;;;;;;;2.50;0.93;;;;;;;;;;5105636;27;20055;-57
2022/08/22 04:49:13;;;;;;;1.98;1.15;;;;;;;;;;5108324;28;20069;-57
2022/08/22 04:51:48;;;;;;;7.32;1.15;;;;;;;;;;5107261;28;20096;-57
2022/08/22 04:54:36;;;;;;;1.63;1.05;;;;;;;;;;5107754;28;20054;-57
2022/08/22 04:57:20;;;;;;;2.33;0.90;;;;;;;;;;5108573;28;20048;-57
2022/08/22 04:59:46;;;;;;;4.45;1.48;;;;;;;;;;5104911;28;20512;-58
2022/08/22 05:02:18;;;;;;;4.75;1.40;;;;;;;;;;5107788;28;20036;-57
2022/08/22 05:04:45;;;;;;;4.50;1.90;;;;;;;;;;5105604;28;20040;-57
2022/08/22 05:07:10;;;;;;;2.45;1.77;;;;;;;;;;5108037;28;20051;-57
2022/08/22 05:09:37;;;;;;;1.55;0.98;;;;;;;;;;5106804;28;20606;-57
2022/08/22 05:12:07;;;;;;;1.48;0.90;;;;;;;;;;5108514;28;20044;-57
2022/08/22 05:14:36;;;;;;;4.53;3.78;;;;;;;;;;5106788;28;20048;-57
2022/08/22 05:17:03;;;;;;;1.42;1.30;;;;;;;;;;5107532;28;20506;-56
2022/08/22 05:19:36;;;;;;;2.45;1.05;;;;;;;;;;5108304;28;20597;-56
2022/08/22 05:22:02;;;;;;;4.00;2.40;;;;;;;;;;5107918;28;20087;-57
2022/08/22 05:24:45;;;;;;;5.88;0.88;;;;;;;;;;5108002;28;20109;-57
2022/08/22 05:27:19;;;;;;;2.30;0.70;;;;;;;;;;5106985;28;20055;-57
2022/08/22 05:29:45;;;;;;;1.13;0.82;;;;;;;;;;5105562;28;20040;-57
2022/08/22 05:32:14;;;;;;;3.47;1.00;;;;;;;;;;5107464;28;20418;-56
2022/08/22 05:34:40;;;;;;;1.70;1.25;;;;;;;;;;5106513;28;20040;-57
2022/08/22 05:37:16;;;;;;;4.50;1.48;;;;;;;;;;5104258;28;20044;-57
2022/08/22 05:39:45;;;;;;;1.55;1.00;;;;;;;;;;5107647;28;20182;-57
2022/08/22 05:42:12;;;;;;;1.52;0.85;;;;;;;;;;5099016;27;20050;-57
2022/08/22 05:44:38;;;;;;;0.85;0.68;;;;;;;;;;5104592;28;20048;-57
2022/08/22 05:47:39;;;;;;;1.65;0.80;;;;;;;;;;5103669;28;20743;-57
2022/08/22 05:50:04;;;;;;;1.35;0.50;;;;;;;;;;5024366;28;20043;-57
2022/08/22 05:52:48;;;;;;;3.65;0.70;;;;;;;;;;5087104;28;20055;-57
2022/08/22 05:55:26;;;;;;;1.48;0.88;;;;;;;;;;5106120;28;20116;-57
2022/08/22 05:58:10;;;;;;;1.42;0.85;;;;;;;;;;5105346;28;20135;-58
2022/08/22 06:00:38;;;;;;;1.80;0.77;;;;;;;;;;5105438;28;20055;-57
2022/08/22 06:03:10;;;;;;;3.15;0.82;;;;;;;;;;5106692;28;20093;-56
2022/08/22 06:05:37;;;;;;;3.10;1.10;;;;;;;;;;5103627;28;20371;-56
2022/08/22 06:08:26;;;;;;;3.15;0.93;;;;;;;;;;5105688;28;20151;-56
2022/08/22 06:10:56;;;;;;;1.65;1.20;;;;;;;;;;5093498;28;20131;-56
2022/08/22 06:13:39;;;;;;;2.45;1.63;;;;;;;;;;5103290;28;20035;-57
2022/08/22 06:16:11;;;;;;;1.23;0.93;;;;;;;;;;5105389;28;20047;-55
2022/08/22 06:18:38;;;;;;;1.73;1.40;;;;;;;;;;5104990;28;20048;-56
2022/08/22 06:21:09;;;;;;;5.15;1.60;;;;;;;;;;5106386;28;20072;-57
2022/08/22 06:23:37;;;;;;;2.17;1.23;;;;;;;;;;5105713;28;20098;-56
2022/08/22 06:26:02;;;;;;;10.70;2.33;;;;;;;;;;5105986;28;20043;-56
2022/08/22 06:28:36;;;;;;;2.10;1.30;;;;;;;;;;5106511;28;20051;-53
2022/08/22 06:31:03;;;;;;;3.45;1.50;;;;;;;;;;5103564;28;20051;-56
2022/08/22 06:33:30;;;;;;;5.13;1.92;;;;;;;;;;5101156;27;20043;-57
2022/08/22 06:38:53;;;;;;;4.82;2.30;;;;;;;;;;5106041;28;20090;-56
2022/08/22 06:41:20;;;;;;;15.45;2.67;;;;;;;;;;5105554;28;20722;-57
2022/08/22 06:43:48;;;;;;;1.65;1.02;;;;;;;;;;5105628;28;20043;-55
2022/08/22 06:46:15;;;;;;;4.05;2.22;;;;;;;;;;5105938;28;20059;-57
2022/08/22 06:48:41;;;;;;;17.02;1.60;;;;;;;;;;5106010;28;20525;-56
2022/08/22 06:51:07;;;;;;;1.75;1.30;;;;;;;;;;5106771;28;20511;-57
2022/08/22 06:53:37;;;;;;;3.03;2.08;;;;;;;;;;5106148;28;20113;-56
2022/08/22 06:56:04;;;;;;;4.18;1.75;;;;;;;;;;5103940;28;20048;-56
2022/08/22 06:58:29;;;;;;;2.40;1.83;;;;;;;;;;5105027;28;20052;-56
2022/08/22 07:00:57;;;;;;;4.30;1.40;;;;;;;;;;5105177;28;20131;-57
2022/08/22 07:03:28;;;;;;;2.83;1.63;;;;;;;;;;5104157;28;20070;-55
2022/08/22 07:05:54;;;;;;;3.08;0.93;;;;;;;;;;5103989;28;20089;-57
2022/08/22 07:08:21;;;;;;;1.08;0.55;;;;;;;;;;5106712;28;20067;-58
2022/08/22 07:10:50;;;;;;;2.33;1.13;;;;;;;;;;5103589;28;20043;-57
2022/08/22 07:13:16;;;;;;;5.00;1.35;;;;;;;;;;5106336;28;20035;-58
2022/08/22 07:15:42;;;;;;;1.52;0.95;;;;;;;;;;5106566;28;20680;-58
2022/08/22 07:18:14;;;;;;;4.32;1.20;;;;;;;;;;5103708;28;20134;-58
2022/08/22 07:20:41;;;;;;;6.60;1.35;;;;;;;;;;5105169;28;20043;-57
2022/08/22 07:23:08;;;;;;;1.23;0.68;;;;;;;;;;5106300;28;20426;-58
2022/08/22 07:25:38;;;;;;;1.00;0.80;;;;;;;;;;5103517;28;20035;-59
2022/08/22 07:28:16;;;;;;;0.77;0.50;;;;;;;;;;5103695;28;20043;-59
2022/08/22 07:30:45;;;;;;;8.18;2.45;;;;;;;;;;5105953;28;20891;-59
2022/08/22 07:33:30;;;;;;;9.82;3.35;;;;;;;;;;5105969;28;20066;-59
2022/08/22 07:36:00;;;;;;;3.35;1.27;;;;;;;;;;5086114;28;20131;-60
2022/08/22 07:38:45;;;;;;;1.92;0.88;;;;;;;;;;5100788;28;20066;-58
2022/08/22 07:41:15;;;;;;;1.55;0.82;;;;;;;;;;5105214;28;20040;-59
2022/08/22 07:43:44;;;;;;;0.75;0.70;;;;;;;;;;5105779;28;20043;-59
2022/08/22 07:46:26;;;;;;;1.25;0.85;;;;;;;;;;5102645;28;20044;-58
2022/08/22 07:49:06;;;;;;;1.45;0.90;;;;;;;;;;5105182;28;20036;-59
2022/08/22 07:51:40;;;;;;;2.38;1.00;;;;;;;;;;5103903;28;20086;-59
2022/08/22 07:54:07;;;;;;;6.20;0.73;;;;;;;;;;5103754;28;20052;-58
2022/08/22 07:56:42;;;;;;;4.05;1.55;;;;;;;;;;5105621;28;20040;-59
2022/08/22 07:59:10;;;;;;;2.53;1.38;;;;;;;;;;5104661;28;20143;-59
2022/08/22 08:01:36;;;;;;;3.55;2.83;;;;;;;;;;5105344;28;20062;-57
2022/08/22 08:04:04;;;;;;;1.48;0.60;;;;;;;;;;5104676;28;20044;-58
2022/08/22 08:06:30;;;;;;;2.13;1.00;;;;;;;;;;5105612;28;20047;-59
2022/08/22 08:08:56;;;;;;;1.33;0.82;;;;;;;;;;5105968;28;20044;-59
2022/08/22 08:11:26;;;;;;;1.33;0.68;;;;;;;;;;5106069;28;20063;-59
2022/08/22 08:13:56;;;;;;;2.17;0.50;;;;;;;;;;5105750;28;20060;-62
2022/08/22 08:16:23;;;;;;;1.05;0.57;;;;;;;;;;5105088;28;20051;-63
2022/08/22 08:18:51;;;;;;;1.90;1.70;;;;;;;;;;5102996;28;20470;-63
2022/08/22 08:21:25;;;;;;;5.47;1.83;;;;;;;;;;5104903;28;20035;-63
2022/08/22 08:23:52;;;;;;;1.88;1.27;;;;;;;;;;5105065;28;20199;-62
2022/08/22 08:26:20;;;;;;;1.58;0.80;;;;;;;;;;5105459;28;20039;-60
2022/08/22 08:28:50;;;;;;;4.53;1.42;;;;;;;;;;5106133;28;20694;-59
2022/08/22 08:31:23;;;;;;;2.17;0.90;;;;;;;;;;5105730;28;20047;-59
2022/08/22 08:33:51;;;;;;;1.55;0.98;;;;;;;;;;5104595;28;20112;-59
2022/08/22 08:36:24;;;;;;;2.03;1.17;;;;;;;;;;5103664;28;20050;-60
2022/08/22 08:38:54;;;;;;;13.73;1.05;;;;;;;;;;5105253;28;20700;-60
2022/08/22 08:41:31;;;;;;;0.70;0.40;;;;;;;;;;5103436;28;20221;-60
2022/08/22 08:44:03;;;;;;;6.72;0.82;;;;;;;;;;5104842;28;20055;-59
2022/08/22 08:46:50;;;;;;;1.40;0.90;;;;;;;;;;5103417;28;20149;-59
2022/08/22 08:49:28;;;;;;;1.52;1.15;;;;;;;;;;5104976;28;20047;-59
2022/08/22 08:52:02;;;;;;;16.17;1.58;;;;;;;;;;5105060;28;20036;-61
2022/08/22 08:54:48;;;;;;;5.32;1.02;;;;;;;;;;5104773;28;20054;-60
2022/08/22 08:57:23;;;;;;;2.20;1.10;;;;;;;;;;5105395;28;20047;-61
2022/08/22 08:59:48;;;;;;;1.60;1.20;;;;;;;;;;5103659;28;20069;-59
2022/08/22 09:02:19;;;;;;;1.98;0.90;;;;;;;;;;5104367;28;20478;-58
2022/08/22 09:04:45;;;;;;;1.38;0.98;;;;;;;;;;5105694;28;20048;-58
2022/08/22 09:07:30;;;;;;;2.08;1.25;;;;;;;;;;5107839;28;20043;-57
2022/08/22 09:10:07;;;;;;;4.10;1.70;;;;;;;;;;5108309;28;20039;-56
2022/08/22 09:12:46;;;;;;;2.33;1.25;;;;;;;;;;5107813;28;20075;-57
2022/08/22 09:15:14;;;;;;;0.93;0.77;;;;;;;;;;5107695;28;20058;-57
2022/08/22 09:17:39;;;;;;;2.85;1.50;;;;;;;;;;5108523;28;20070;-57
2022/08/22 09:20:15;;;;;;;2.08;1.23;;;;;;;;;;5107133;28;20040;-57
2022/08/22 09:22:59;;;;;;;5.70;0.63;;;;;;;;;;5105577;28;20048;-57
2022/08/22 09:25:25;;;;;;;0.80;0.73;;;;;;;;;;5107736;28;20051;-61
2022/08/22 09:28:04;;;;;;;4.10;1.77;;;;;;;;;;5108211;28;20108;-61
2022/08/22 09:30:49;;;;;;;5.97;1.70;;;;;;;;;;5108189;28;20040;-60
2022/08/22 09:33:16;;;;;;;2.30;1.05;;;;;;;;;;5106927;28;20052;-61
2022/08/22 09:35:59;;;;;;;4.75;1.27;;;;;;;;;;5106381;28;20043;-60
2022/08/22 09:38:40;;;;;;;7.25;1.92;;;;;;;;;;5104611;28;20443;-60
2022/08/22 09:41:05;;;;;;;2.70;1.15;;;;;;;;;;5107767;28;20043;-60
2022/08/22 09:43:47;;;;;;;4.38;1.27;;;;;;;;;;5105799;28;20187;-59
2022/08/22 09:46:16;;;;;;;8.00;2.90;;;;;;;;;;5105082;28;20198;-61
2022/08/22 09:48:47;;;;;;;3.50;1.27;;;;;;;;;;5107508;28;20145;-61
2022/08/22 09:51:37;;;;;;;6.00;2.08;;;;;;;;;;5104999;28;20634;-61
2022/08/22 09:54:12;;;;;;;2.00;1.00;;;;;;;;;;5105177;28;20071;-61
2022/08/22 09:56:41;;;;;;;2.60;0.70;;;;;;;;;;5100956;28;20140;-61
2022/08/22 09:59:10;;;;;;;1.95;0.80;;;;;;;;;;5103370;28;20565;-61
2022/08/22 10:01:44;;;;;;;8.17;1.67;;;;;;;;;;5102101;28;20044;-61
2022/08/22 10:04:09;;;;;;;2.80;1.42;;;;;;;;;;5105069;28;20043;-60
2022/08/22 10:06:55;;;;;;;4.82;0.98;;;;;;;;;;5105177;28;20066;-61
2022/08/22 10:09:21;;;;;;;16.33;2.90;;;;;;;;;;5050314;28;20058;-61
2022/08/22 10:11:52;;;;;;;7.78;1.70;;;;;;;;;;5104627;28;20047;-61
2022/08/22 10:14:24;;;;;;;2.78;0.95;;;;;;;;;;5105349;28;20058;-61
2022/08/22 10:16:52;;;;;;;4.10;1.70;;;;;;;;;;5103992;28;20047;-61
2022/08/22 10:19:39;;;;;;;3.53;2.42;;;;;;;;;;5102891;28;20040;-61
2022/08/22 10:22:23;;;;;;;3.60;1.00;;;;;;;;;;5104084;28;20044;-61
2022/08/22 10:25:04;;;;;;;8.98;1.30;;;;;;;;;;5103574;28;20513;-61
2022/08/22 10:27:38;;;;;;;5.38;1.65;;;;;;;;;;5105507;28;20051;-61
2022/08/22 10:30:17;;;;;;;1.77;1.35;;;;;;;;;;5104025;28;20062;-61
2022/08/22 10:33:01;;;;;;;4.28;1.63;;;;;;;;;;5105045;28;20078;-61
2022/08/22 10:35:32;;;;;;;3.72;2.00;;;;;;;;;;5104649;28;20051;-61
2022/08/22 10:38:13;;;;;;;5.25;1.95;;;;;;;;;;5103585;28;20040;-61
2022/08/22 10:40:38;;;;;;;5.22;2.13;;;;;;;;;;5103661;28;20538;-61
2022/08/22 10:43:12;;;;;;;8.18;2.05;;;;;;;;;;5104159;28;20122;-61
2022/08/22 10:45:50;;;;;;;1.75;1.50;;;;;;;;;;5102792;28;20046;-61
2022/08/22 10:48:29;;;;;;;1.50;0.95;;;;;;;;;;5103907;28;20051;-61
2022/08/22 10:51:00;;;;;;;3.08;1.83;;;;;;;;;;5103288;28;20156;-61
2022/08/22 10:53:50;;;;;;;6.97;3.28;;;;;;;;;;5104567;28;20140;-61
2022/08/22 10:56:29;;;;;;;8.80;2.13;;;;;;;;;;5106179;28;20055;-60
2022/08/22 10:59:03;;;;;;;1.45;0.77;;;;;;;;;;5105979;28;20126;-62
2022/08/22 11:01:31;;;;;;;2.15;1.27;;;;;;;;;;5104050;28;20036;-61
2022/08/22 11:03:59;;;;;;;3.55;0.68;;;;;;;;;;5100065;28;20043;-61
2022/08/22 11:06:43;;;;;;;1.00;0.70;;;;;;;;;;5105746;28;20063;-61
2022/08/22 11:09:08;;;;;;;1.70;1.38;;;;;;;;;;5105127;28;20052;-61
2022/08/22 11:11:33;;;;;;;8.05;2.22;;;;;;;;;;5105766;27;20100;-62
2022/08/22 11:14:17;;;;;;;1.70;0.82;;;;;;;;;;5103768;28;20044;-61
2022/08/22 11:17:01;;;;;;;3.80;1.75;;;;;;;;;;5103656;28;20150;-61
2022/08/22 11:19:39;;;;;;;2.03;1.10;;;;;;;;;;5105962;28;20043;-61
2022/08/22 11:22:22;;;;;;;3.28;1.17;;;;;;;;;;5105321;28;20509;-61
2022/08/22 11:25:06;;;;;;;2.75;1.67;;;;;;;;;;5106071;28;20107;-61
2022/08/22 11:27:40;;;;;;;2.50;0.90;;;;;;;;;;5105494;28;20069;-61
2022/08/22 11:30:09;;;;;;;3.00;1.60;;;;;;;;;;5105524;28;20138;-61
2022/08/22 11:32:38;;;;;;;0.95;0.52;;;;;;;;;;5106156;28;20047;-61
2022/08/22 11:35:15;;;;;;;22.92;1.60;;;;;;;;;;5106388;28;20452;-61
2022/08/22 11:37:59;;;;;;;3.08;0.93;;;;;;;;;;5105350;28;20135;-62
2022/08/22 11:40:30;;;;;;;9.18;0.95;;;;;;;;;;5106118;28;20039;-62
2022/08/22 11:42:56;;;;;;;1.90;0.90;;;;;;;;;;5105928;28;20047;-61
2022/08/22 11:45:24;;;;;;;1.60;1.38;;;;;;;;;;5104846;28;20043;-52
2022/08/22 11:48:12;;;;;;;0.85;0.55;;;;;;;;;;5105788;28;20104;-56
2022/08/22 11:50:46;;;;;;;3.20;0.80;;;;;;;;;;5068047;28;20759;-54
2022/08/22 11:53:12;;;;;;;1.15;0.60;;;;;;;;;;5104187;28;20387;-55
2022/08/22 11:55:42;;;;;;;3.78;1.33;;;;;;;;;;5104513;28;20118;-54
2022/08/22 11:58:19;;;;;;;3.15;1.98;;;;;;;;;;5105670;28;20040;-54
2022/08/22 12:01:03;;;;;;;3.10;1.27;;;;;;;;;;5105053;28;20710;-53
2022/08/22 12:03:52;;;;;;;2.40;1.23;;;;;;;;;;5104997;28;20414;-53
2022/08/22 12:06:36;;;;;;;10.60;0.88;;;;;;;;;;5057374;28;20039;-55
2022/08/22 12:09:21;;;;;;;2.30;0.70;;;;;;;;;;5104920;28;20514;-55
2022/08/22 12:12:05;;;;;;;2.60;0.20;;;;;;;;;;5103818;28;20285;-54
2022/08/22 12:14:40;;;;;;;1.25;0.30;;;;;;;;;;5105239;28;20502;-54
2022/08/22 12:17:18;;;;;;;1.00;0.28;;;;;;;;;;5103472;28;20494;-55
2022/08/22 12:19:58;;;;;;;1.05;0.68;;;;;;;;;;5104384;28;20499;-55
2022/08/22 12:22:36;;;;;;;3.63;0.50;;;;;;;;;;5105486;28;20032;-53
2022/08/22 12:25:15;;;;;;;3.03;1.02;;;;;;;;;;5101567;28;20070;-52
2022/08/22 12:27:46;;;;;;;11.15;5.35;;;;;;;;;;5105375;28;20047;-56
2022/08/22 12:30:16;;;;;;;2.63;0.60;;;;;;;;;;5104579;28;20055;-55
2022/08/22 12:32:50;;;;;;;1.65;0.90;;;;;;;;;;5105172;28;20082;-54
2022/08/22 12:35:19;;;;;;;4.57;0.70;;;;;;;;;;5105990;28;20559;-53
2022/08/22 12:37:47;;;;;;;2.03;1.15;;;;;;;;;;5103867;28;20074;-52
2022/08/22 12:40:15;;;;;;;1.30;0.55;;;;;;;;;;5106218;28;20047;-53
2022/08/22 12:43:00;;;;;;;4.85;0.40;;;;;;;;;;5108526;28;20067;-53
2022/08/22 12:45:25;;;;;;;3.47;0.77;;;;;;;;;;5107199;28;20499;-54
2022/08/22 12:48:03;;;;;;;2.00;0.90;;;;;;;;;;5108222;28;20040;-53
2022/08/22 12:50:40;;;;;;;0.75;0.40;;;;;;;;;;5108176;28;20494;-55
2022/08/22 12:53:20;;;;;;;1.33;0.85;;;;;;;;;;5108244;28;20050;-55
2022/08/22 12:55:49;;;;;;;0.70;0.28;;;;;;;;;;5109412;28;20062;-54
2022/08/22 12:58:33;;;;;;;2.55;1.30;;;;;;;;;;5108330;28;20041;-51
2022/08/22 13:01:01;;;;;;;1.52;0.40;;;;;;;;;;5109068;28;20067;-50
2022/08/22 13:03:26;;;;;;;2.47;0.75;;;;;;;;;;5108957;28;20130;-55
2022/08/22 13:05:52;;;;;;;2.20;0.70;;;;;;;;;;5108232;28;20119;-54
2022/08/22 13:08:29;;;;;;;5.63;1.33;;;;;;;;;;5107643;28;20043;-53
2022/08/22 13:11:00;;;;;;;2.47;1.55;;;;;;;;;;5106851;28;20120;-55
2022/08/22 13:13:31;;;;;;;3.40;1.33;;;;;;;;;;5109451;28;20177;-55
2022/08/22 13:16:02;;;;;;;3.22;1.33;;;;;;;;;;5108895;28;20047;-55
2022/08/22 13:18:31;;;;;;;1.23;0.60;;;;;;;;;;5108847;28;20225;-53
2022/08/22 13:20:59;;;;;;;2.20;1.10;;;;;;;;;;5107038;28;20051;-54
2022/08/22 13:23:27;;;;;;;2.97;1.60;;;;;;;;;;5108623;28;20044;-55
2022/08/22 13:26:02;;;;;;;1.70;1.02;;;;;;;;;;5109158;28;20048;-53
2022/08/22 13:28:28;;;;;;;7.78;1.92;;;;;;;;;;5107094;28;20510;-55
2022/08/22 13:30:54;;;;;;;5.20;0.70;;;;;;;;;;5106861;28;20084;-56
2022/08/22 13:33:27;;;;;;;2.90;1.40;;;;;;;;;;5107238;28;20059;-54
2022/08/22 13:35:55;;;;;;;9.65;1.27;;;;;;;;;;5104041;28;20466;-56
2022/08/22 13:38:28;;;;;;;1.23;0.80;;;;;;;;;;5089351;28;20480;-56
2022/08/22 13:40:55;;;;;;;3.08;0.40;;;;;;;;;;5107212;28;20044;-55
2022/08/22 13:43:29;;;;;;;0.75;0.63;;;;;;;;;;5103865;28;20052;-54
2022/08/22 13:45:56;;;;;;;2.03;0.75;;;;;;;;;;5106224;28;20120;-56
2022/08/22 13:48:24;;;;;;;1.27;1.00;;;;;;;;;;5106893;28;20059;-48
2022/08/22 13:51:20;;;;;;;1.23;0.80;;;;;;;;;;5107341;28;20107;-52
2022/08/22 13:53:49;;;;;;;0.50;0.30;;;;;;;;;;5094448;28;20078;-52
2022/08/22 13:56:19;;;;;;;1.33;0.80;;;;;;;;;;5106406;28;20062;-50
2022/08/22 13:58:54;;;;;;;1.73;0.68;;;;;;;;;;5107677;28;20127;-53
2022/08/22 14:01:25;;;;;;;4.72;0.77;;;;;;;;;;5102948;28;20043;-53
2022/08/22 14:03:51;;;;;;;8.45;1.15;;;;;;;;;;5107222;28;20052;-51
2022/08/22 14:06:22;;;;;;;2.78;1.10;;;;;;;;;;5107925;28;20510;-55
2022/08/22 14:08:49;;;;;;;2.65;0.85;;;;;;;;;;5105269;28;20047;-51
2022/08/22 14:11:20;;;;;;;0.90;0.55;;;;;;;;;;5106580;28;20112;-53
2022/08/22 14:13:59;;;;;;;1.48;0.98;;;;;;;;;;5107171;28;20051;-53
2022/08/22 14:16:31;;;;;;;0.80;0.53;;;;;;;;;;5106813;28;20070;-53
2022/08/22 14:18:57;;;;;;;7.57;0.60;;;;;;;;;;5106708;28;20350;-55
2022/08/22 14:21:37;;;;;;;1.25;0.88;;;;;;;;;;5108177;28;20054;-54
2022/08/22 14:24:09;;;;;;;2.63;0.60;;;;;;;;;;5105686;28;20120;-50
2022/08/22 14:26:36;;;;;;;0.22;0.20;;;;;;;;;;5105913;28;20057;-56
2022/08/22 14:29:04;;;;;;;1.75;1.08;;;;;;;;;;5107264;28;20117;-53
2022/08/22 14:31:29;;;;;;;5.28;1.20;;;;;;;;;;5106699;28;20039;-53
2022/08/22 14:33:55;;;;;;;17.88;2.25;;;;;;;;;;5106751;28;20754;-55
2022/08/22 14:36:22;;;;;;;4.53;1.92;;;;;;;;;;5106471;28;20101;-55
2022/08/22 14:38:55;;;;;;;2.47;1.10;;;;;;;;;;5103867;28;20666;-55
2022/08/22 14:41:27;;;;;;;0.77;0.47;;;;;;;;;;5104628;28;20043;-54
2022/08/22 14:43:58;;;;;;;2.97;0.90;;;;;;;;;;5104051;28;20043;-56
2022/08/22 14:46:50;;;;;;;1.77;0.88;;;;;;;;;;5106961;28;20040;-55
2022/08/22 14:49:25;;;;;;;10.27;0.93;;;;;;;;;;5097573;28;20130;-54
2022/08/22 14:52:11;;;;;;;1.92;0.63;;;;;;;;;;5106569;28;20372;-55
2022/08/22 14:54:37;;;;;;;1.98;0.82;;;;;;;;;;5106719;28;20243;-51
2022/08/22 14:57:07;;;;;;;1.15;0.52;;;;;;;;;;5106258;28;20082;-54
2022/08/22 14:59:47;;;;;;;0.50;0.30;;;;;;;;;;5104644;28;20044;-55
2022/08/22 15:02:21;;;;;;;1.40;0.88;;;;;;;;;;5105648;28;20119;-56
2022/08/22 15:04:50;;;;;;;3.95;0.80;;;;;;;;;;5106480;28;20044;-56
2022/08/22 15:07:23;;;;;;;1.77;0.70;;;;;;;;;;5104503;28;20043;-58
2022/08/22 15:09:52;;;;;;;1.20;0.65;;;;;;;;;;5105657;28;20510;-55
2022/08/22 15:12:24;;;;;;;2.03;0.73;;;;;;;;;;5103653;28;20052;-57
2022/08/22 15:14:54;;;;;;;1.38;0.68;;;;;;;;;;5105037;28;20122;-56
2022/08/22 15:17:19;;;;;;;;;;;;;;;;;;5105117;28;20709;-57
2022/08/22 15:19:46;;;;;;;1.10;0.77;;;;;;;;;;5106731;28;19922;-55
2022/08/22 15:22:19;;;;;;;1.42;0.30;;;;;;;;;;5105069;28;20043;-55
2022/08/22 15:24:50;;;;;;;3.47;1.38;;;;;;;;;;5105820;28;20513;-56
2022/08/22 15:27:18;;;;;;;3.92;0.80;;;;;;;;;;5102817;28;20146;-53
2022/08/22 15:30:09;;;;;;;1.33;0.70;;;;;;;;;;5105504;28;20079;-54